sensor_id;sensor_type;location;lat;lon;timestamp;temperature;humidity
28614;DHT22;15806;53.548;9.964;2023-06-26T00:00:42;22.50;1.00
28614;DHT22;15806;53.548;9.964;2023-06-26T00:04:19;22.50;1.00
28614;DHT22;15806;53.548;9.964;2023-06-26T00:06:00;22.50;1.00
28614;DHT22;15806;53.548;9.964;2023-06-26T00:07:41;22.40;1.00
28614;DHT22;15806;53.548;9.964;2023-06-26T00:09:32;22.40;1.00
28614;DHT22;15806;53.548;9.964;2023-06-26T00:11:12;22.40;1.00
28614;DHT22;15806;53.548;9.964;2023-06-26T00:12:54;22.40;99.90
28614;DHT22;15806;53.548;9.964;2023-06-26T00:14:34;22.40;99.90
28614;DHT22;15806;53.548;9.964;2023-06-26T00:16:15;22.30;99.90
28614;DHT22;15806;53.548;9.964;2023-06-26T00:17:55;22.30;1.00
28614;DHT22;15806;53.548;9.964;2023-06-26T00:19:36;22.30;1.00
28614;DHT22;15806;53.548;9.964;2023-06-26T00:21:16;22.30;1.00
28614;DHT22;15806;53.548;9.964;2023-06-26T00:22:57;22.30;1.00
28614;DHT22;15806;53.548;9.964;2023-06-26T00:24:37;22.20;1.00
28614;DHT22;15806;53.548;9.964;2023-06-26T00:26:18;22.20;99.90
28614;DHT22;15806;53.548;9.964;2023-06-26T00:27:58;22.20;99.90
28614;DHT22;15806;53.548;9.964;2023-06-26T00:29:39;22.20;12.50
28614;DHT22;15806;53.548;9.964;2023-06-26T00:31:19;22.20;1.00
28614;DHT22;15806;53.548;9.964;2023-06-26T00:33:00;22.20;1.00
28614;DHT22;15806;53.548;9.964;2023-06-26T00:34:41;22.20;1.00
28614;DHT22;15806;53.548;9.964;2023-06-26T00:36:22;22.10;1.00
28614;DHT22;15806;53.548;9.964;2023-06-26T00:38:02;22.10;99.90
28614;DHT22;15806;53.548;9.964;2023-06-26T00:39:42;22.10;1.00
28614;DHT22;15806;53.548;9.964;2023-06-26T00:41:23;22.10;1.00
28614;DHT22;15806;53.548;9.964;2023-06-26T00:43:03;22.00;99.90
28614;DHT22;15806;53.548;9.964;2023-06-26T00:44:44;22.00;96.00
28614;DHT22;15806;53.548;9.964;2023-06-26T00:46:25;22.00;99.90
28614;DHT22;15806;53.548;9.964;2023-06-26T00:48:05;22.00;99.90
28614;DHT22;15806;53.548;9.964;2023-06-26T00:49:46;21.90;99.90
28614;DHT22;15806;53.548;9.964;2023-06-26T00:51:28;22.00;99.90
28614;DHT22;15806;53.548;9.964;2023-06-26T00:53:11;21.90;99.90
28614;DHT22;15806;53.548;9.964;2023-06-26T00:54:52;21.90;99.90
28614;DHT22;15806;53.548;9.964;2023-06-26T00:56:34;21.90;1.00
28614;DHT22;15806;53.548;9.964;2023-06-26T00:58:15;21.90;99.90
28614;DHT22;15806;53.548;9.964;2023-06-26T00:59:55;21.80;99.90
28614;DHT22;15806;53.548;9.964;2023-06-26T01:01:36;21.80;99.90
28614;DHT22;15806;53.548;9.964;2023-06-26T01:03:17;21.80;99.90
28614;DHT22;15806;53.548;9.964;2023-06-26T01:04:58;21.80;99.90
28614;DHT22;15806;53.548;9.964;2023-06-26T01:06:38;21.80;99.90
28614;DHT22;15806;53.548;9.964;2023-06-26T01:08:19;21.70;99.90
28614;DHT22;15806;53.548;9.964;2023-06-26T01:10:00;21.70;99.90
28614;DHT22;15806;53.548;9.964;2023-06-26T01:11:41;21.70;99.90
28614;DHT22;15806;53.548;9.964;2023-06-26T01:13:23;21.60;99.90
28614;DHT22;15806;53.548;9.964;2023-06-26T01:15:04;21.60;99.90
28614;DHT22;15806;53.548;9.964;2023-06-26T01:16:45;21.60;99.90
28614;DHT22;15806;53.548;9.964;2023-06-26T01:18:26;21.60;99.90
28614;DHT22;15806;53.548;9.964;2023-06-26T01:20:08;21.60;99.90
28614;DHT22;15806;53.548;9.964;2023-06-26T01:21:51;21.60;99.90
28614;DHT22;15806;53.548;9.964;2023-06-26T01:23:48;21.50;99.90
28614;DHT22;15806;53.548;9.964;2023-06-26T01:25:55;21.50;99.90
28614;DHT22;15806;53.548;9.964;2023-06-26T01:27:37;21.50;99.90
28614;DHT22;15806;53.548;9.964;2023-06-26T01:29:18;21.50;99.90
28614;DHT22;15806;53.548;9.964;2023-06-26T01:30:59;21.50;99.90
28614;DHT22;15806;53.548;9.964;2023-06-26T01:32:40;21.50;99.90
28614;DHT22;15806;53.548;9.964;2023-06-26T01:34:21;21.40;99.90
28614;DHT22;15806;53.548;9.964;2023-06-26T01:36:02;21.40;99.90
28614;DHT22;15806;53.548;9.964;2023-06-26T01:37:43;21.40;99.90
28614;DHT22;15806;53.548;9.964;2023-06-26T01:39:24;21.30;99.90
28614;DHT22;15806;53.548;9.964;2023-06-26T01:41:05;21.30;99.90
28614;DHT22;15806;53.548;9.964;2023-06-26T01:42:46;21.30;99.90
28614;DHT22;15806;53.548;9.964;2023-06-26T01:44:28;21.20;99.90
28614;DHT22;15806;53.548;9.964;2023-06-26T01:46:36;21.20;99.90
28614;DHT22;15806;53.548;9.964;2023-06-26T01:48:23;21.20;99.90
28614;DHT22;15806;53.548;9.964;2023-06-26T01:50:26;21.20;99.90
28614;DHT22;15806;53.548;9.964;2023-06-26T01:54:14;21.30;99.90
28614;DHT22;15806;53.548;9.964;2023-06-26T01:56:07;21.30;99.90
28614;DHT22;15806;53.548;9.964;2023-06-26T01:57:49;21.30;99.90
28614;DHT22;15806;53.548;9.964;2023-06-26T01:59:32;21.30;99.90
28614;DHT22;15806;53.548;9.964;2023-06-26T02:01:13;21.30;99.90
28614;DHT22;15806;53.548;9.964;2023-06-26T02:02:54;21.30;99.90
28614;DHT22;15806;53.548;9.964;2023-06-26T02:04:35;21.30;99.90
28614;DHT22;15806;53.548;9.964;2023-06-26T02:06:15;21.30;99.90
28614;DHT22;15806;53.548;9.964;2023-06-26T02:07:56;21.30;99.90
28614;DHT22;15806;53.548;9.964;2023-06-26T02:09:36;21.30;99.90
28614;DHT22;15806;53.548;9.964;2023-06-26T02:11:17;21.30;99.90
28614;DHT22;15806;53.548;9.964;2023-06-26T02:12:57;21.20;99.90
28614;DHT22;15806;53.548;9.964;2023-06-26T02:14:38;21.20;99.90
28614;DHT22;15806;53.548;9.964;2023-06-26T02:16:18;21.30;99.90
28614;DHT22;15806;53.548;9.964;2023-06-26T02:17:59;21.20;99.90
28614;DHT22;15806;53.548;9.964;2023-06-26T02:19:39;21.20;99.90
28614;DHT22;15806;53.548;9.964;2023-06-26T02:21:20;21.10;99.90
28614;DHT22;15806;53.548;9.964;2023-06-26T02:23:00;21.10;99.90
28614;DHT22;15806;53.548;9.964;2023-06-26T02:24:42;21.10;99.90
28614;DHT22;15806;53.548;9.964;2023-06-26T02:26:23;21.00;99.90
28614;DHT22;15806;53.548;9.964;2023-06-26T02:28:04;21.00;99.90
28614;DHT22;15806;53.548;9.964;2023-06-26T02:29:44;21.00;99.90
28614;DHT22;15806;53.548;9.964;2023-06-26T02:31:25;21.00;99.90
28614;DHT22;15806;53.548;9.964;2023-06-26T02:33:05;21.00;99.90
28614;DHT22;15806;53.548;9.964;2023-06-26T02:34:46;21.00;99.90
28614;DHT22;15806;53.548;9.964;2023-06-26T02:36:26;21.00;99.90
28614;DHT22;15806;53.548;9.964;2023-06-26T02:38:07;20.90;99.90
28614;DHT22;15806;53.548;9.964;2023-06-26T02:39:47;20.90;99.90
28614;DHT22;15806;53.548;9.964;2023-06-26T02:41:27;20.90;99.90
28614;DHT22;15806;53.548;9.964;2023-06-26T02:43:08;20.90;99.90
28614;DHT22;15806;53.548;9.964;2023-06-26T02:44:49;20.90;99.90
28614;DHT22;15806;53.548;9.964;2023-06-26T02:46:29;20.90;99.90
28614;DHT22;15806;53.548;9.964;2023-06-26T02:48:09;20.80;99.90
28614;DHT22;15806;53.548;9.964;2023-06-26T02:49:50;20.80;99.90
28614;DHT22;15806;53.548;9.964;2023-06-26T02:51:32;20.80;99.90
28614;DHT22;15806;53.548;9.964;2023-06-26T02:53:13;20.90;99.90
28614;DHT22;15806;53.548;9.964;2023-06-26T02:54:53;20.80;99.90
28614;DHT22;15806;53.548;9.964;2023-06-26T02:56:34;20.70;99.90
28614;DHT22;15806;53.548;9.964;2023-06-26T02:58:14;20.70;99.90
28614;DHT22;15806;53.548;9.964;2023-06-26T02:59:55;20.70;99.90
28614;DHT22;15806;53.548;9.964;2023-06-26T03:01:35;20.70;99.90
28614;DHT22;15806;53.548;9.964;2023-06-26T03:03:16;20.70;99.90
28614;DHT22;15806;53.548;9.964;2023-06-26T03:04:56;20.70;99.90
28614;DHT22;15806;53.548;9.964;2023-06-26T03:06:37;20.70;99.90
28614;DHT22;15806;53.548;9.964;2023-06-26T03:08:17;20.70;99.90
28614;DHT22;15806;53.548;9.964;2023-06-26T03:09:58;20.60;99.90
28614;DHT22;15806;53.548;9.964;2023-06-26T03:11:38;20.70;99.90
28614;DHT22;15806;53.548;9.964;2023-06-26T03:13:19;20.70;99.90
28614;DHT22;15806;53.548;9.964;2023-06-26T03:14:59;20.70;99.90
28614;DHT22;15806;53.548;9.964;2023-06-26T03:16:40;20.70;99.90
28614;DHT22;15806;53.548;9.964;2023-06-26T03:18:21;20.70;99.90
28614;DHT22;15806;53.548;9.964;2023-06-26T03:20:01;20.70;99.90
28614;DHT22;15806;53.548;9.964;2023-06-26T03:21:42;20.70;99.90
28614;DHT22;15806;53.548;9.964;2023-06-26T03:23:23;20.60;99.90
28614;DHT22;15806;53.548;9.964;2023-06-26T03:25:04;20.70;99.90
28614;DHT22;15806;53.548;9.964;2023-06-26T03:26:45;20.60;99.90
28614;DHT22;15806;53.548;9.964;2023-06-26T03:28:25;20.60;99.90
28614;DHT22;15806;53.548;9.964;2023-06-26T03:30:06;20.60;99.90
28614;DHT22;15806;53.548;9.964;2023-06-26T03:31:47;20.60;99.90
28614;DHT22;15806;53.548;9.964;2023-06-26T03:33:27;20.60;99.90
28614;DHT22;15806;53.548;9.964;2023-06-26T03:35:08;20.60;99.90
28614;DHT22;15806;53.548;9.964;2023-06-26T03:36:48;20.60;99.90
28614;DHT22;15806;53.548;9.964;2023-06-26T03:38:28;20.50;99.90
28614;DHT22;15806;53.548;9.964;2023-06-26T03:40:10;20.50;99.90
28614;DHT22;15806;53.548;9.964;2023-06-26T03:41:50;20.50;99.90
28614;DHT22;15806;53.548;9.964;2023-06-26T03:43:31;20.50;99.90
28614;DHT22;15806;53.548;9.964;2023-06-26T03:45:11;20.50;99.90
28614;DHT22;15806;53.548;9.964;2023-06-26T03:46:54;20.40;99.90
28614;DHT22;15806;53.548;9.964;2023-06-26T03:48:34;20.40;99.90
28614;DHT22;15806;53.548;9.964;2023-06-26T03:50:16;20.40;99.90
28614;DHT22;15806;53.548;9.964;2023-06-26T03:51:56;20.40;99.90
28614;DHT22;15806;53.548;9.964;2023-06-26T03:53:37;20.50;99.90
28614;DHT22;15806;53.548;9.964;2023-06-26T03:55:18;20.50;99.90
28614;DHT22;15806;53.548;9.964;2023-06-26T03:56:58;20.40;99.90
28614;DHT22;15806;53.548;9.964;2023-06-26T03:58:39;20.40;99.90
28614;DHT22;15806;53.548;9.964;2023-06-26T04:00:19;20.40;99.90
28614;DHT22;15806;53.548;9.964;2023-06-26T04:02:00;20.40;99.90
28614;DHT22;15806;53.548;9.964;2023-06-26T04:03:40;20.40;99.90
28614;DHT22;15806;53.548;9.964;2023-06-26T04:05:20;20.40;99.90
28614;DHT22;15806;53.548;9.964;2023-06-26T04:07:01;20.40;99.90
28614;DHT22;15806;53.548;9.964;2023-06-26T04:08:42;20.40;99.90
28614;DHT22;15806;53.548;9.964;2023-06-26T04:10:23;20.40;99.90
28614;DHT22;15806;53.548;9.964;2023-06-26T04:12:04;20.40;99.90
28614;DHT22;15806;53.548;9.964;2023-06-26T04:13:44;20.40;99.90
28614;DHT22;15806;53.548;9.964;2023-06-26T04:15:25;20.40;99.90
28614;DHT22;15806;53.548;9.964;2023-06-26T04:17:05;20.50;99.90
28614;DHT22;15806;53.548;9.964;2023-06-26T04:18:46;20.40;99.90
28614;DHT22;15806;53.548;9.964;2023-06-26T04:20:26;20.40;99.90
28614;DHT22;15806;53.548;9.964;2023-06-26T04:22:07;20.50;99.90
28614;DHT22;15806;53.548;9.964;2023-06-26T04:23:47;20.50;99.90
28614;DHT22;15806;53.548;9.964;2023-06-26T04:25:28;20.40;99.90
28614;DHT22;15806;53.548;9.964;2023-06-26T04:27:08;20.40;99.90
28614;DHT22;15806;53.548;9.964;2023-06-26T04:28:49;20.50;99.90
28614;DHT22;15806;53.548;9.964;2023-06-26T04:30:29;20.40;99.90
28614;DHT22;15806;53.548;9.964;2023-06-26T04:32:10;20.50;99.90
28614;DHT22;15806;53.548;9.964;2023-06-26T04:33:50;20.50;99.90
28614;DHT22;15806;53.548;9.964;2023-06-26T04:35:31;20.50;99.90
28614;DHT22;15806;53.548;9.964;2023-06-26T04:37:11;20.40;99.90
28614;DHT22;15806;53.548;9.964;2023-06-26T04:38:52;20.50;99.90
28614;DHT22;15806;53.548;9.964;2023-06-26T04:40:32;20.50;99.90
28614;DHT22;15806;53.548;9.964;2023-06-26T04:42:13;20.50;99.90
28614;DHT22;15806;53.548;9.964;2023-06-26T04:43:53;20.50;99.90
28614;DHT22;15806;53.548;9.964;2023-06-26T04:45:34;20.50;99.90
28614;DHT22;15806;53.548;9.964;2023-06-26T04:47:14;20.50;99.90
28614;DHT22;15806;53.548;9.964;2023-06-26T04:48:55;20.50;99.90
28614;DHT22;15806;53.548;9.964;2023-06-26T04:50:35;20.60;99.90
28614;DHT22;15806;53.548;9.964;2023-06-26T04:52:16;20.50;99.90
28614;DHT22;15806;53.548;9.964;2023-06-26T04:53:56;20.60;99.90
28614;DHT22;15806;53.548;9.964;2023-06-26T04:55:37;20.60;99.90
28614;DHT22;15806;53.548;9.964;2023-06-26T04:57:17;20.50;99.90
28614;DHT22;15806;53.548;9.964;2023-06-26T04:58:58;20.60;99.90
28614;DHT22;15806;53.548;9.964;2023-06-26T05:00:39;20.60;99.90
28614;DHT22;15806;53.548;9.964;2023-06-26T05:02:19;20.70;99.90
28614;DHT22;15806;53.548;9.964;2023-06-26T05:04:00;20.70;99.90
28614;DHT22;15806;53.548;9.964;2023-06-26T05:05:40;20.60;99.90
28614;DHT22;15806;53.548;9.964;2023-06-26T05:07:21;20.70;99.90
28614;DHT22;15806;53.548;9.964;2023-06-26T05:09:01;20.70;99.90
28614;DHT22;15806;53.548;9.964;2023-06-26T05:10:42;20.70;99.90
28614;DHT22;15806;53.548;9.964;2023-06-26T05:12:23;20.70;99.90
28614;DHT22;15806;53.548;9.964;2023-06-26T05:14:03;20.80;99.90
28614;DHT22;15806;53.548;9.964;2023-06-26T05:15:44;20.80;99.90
28614;DHT22;15806;53.548;9.964;2023-06-26T05:17:25;20.90;99.90
28614;DHT22;15806;53.548;9.964;2023-06-26T05:19:05;20.90;99.90
28614;DHT22;15806;53.548;9.964;2023-06-26T05:20:46;20.90;99.90
28614;DHT22;15806;53.548;9.964;2023-06-26T05:22:27;20.90;99.90
28614;DHT22;15806;53.548;9.964;2023-06-26T05:24:08;20.90;99.90
28614;DHT22;15806;53.548;9.964;2023-06-26T05:25:50;21.00;99.90
28614;DHT22;15806;53.548;9.964;2023-06-26T05:27:31;21.00;99.90
28614;DHT22;15806;53.548;9.964;2023-06-26T05:29:11;21.00;99.90
28614;DHT22;15806;53.548;9.964;2023-06-26T05:30:52;21.00;99.90
28614;DHT22;15806;53.548;9.964;2023-06-26T05:32:34;21.10;99.90
28614;DHT22;15806;53.548;9.964;2023-06-26T05:34:15;21.20;99.90
28614;DHT22;15806;53.548;9.964;2023-06-26T05:35:58;21.20;99.90
28614;DHT22;15806;53.548;9.964;2023-06-26T05:37:40;21.30;99.90
28614;DHT22;15806;53.548;9.964;2023-06-26T05:39:22;21.30;99.90
28614;DHT22;15806;53.548;9.964;2023-06-26T05:41:02;21.30;99.90
28614;DHT22;15806;53.548;9.964;2023-06-26T05:42:43;21.30;99.90
28614;DHT22;15806;53.548;9.964;2023-06-26T05:44:24;21.30;99.90
28614;DHT22;15806;53.548;9.964;2023-06-26T05:46:04;21.40;99.90
28614;DHT22;15806;53.548;9.964;2023-06-26T05:47:45;21.50;99.90
28614;DHT22;15806;53.548;9.964;2023-06-26T05:49:25;21.50;99.90
28614;DHT22;15806;53.548;9.964;2023-06-26T05:51:06;21.60;99.90
28614;DHT22;15806;53.548;9.964;2023-06-26T05:52:47;21.60;99.90
28614;DHT22;15806;53.548;9.964;2023-06-26T05:54:28;21.60;99.90
28614;DHT22;15806;53.548;9.964;2023-06-26T05:56:09;21.60;99.90
28614;DHT22;15806;53.548;9.964;2023-06-26T05:57:51;21.70;1.00
28614;DHT22;15806;53.548;9.964;2023-06-26T05:59:31;21.70;99.90
28614;DHT22;15806;53.548;9.964;2023-06-26T06:01:12;21.80;1.00
28614;DHT22;15806;53.548;9.964;2023-06-26T06:02:53;21.90;99.90
28614;DHT22;15806;53.548;9.964;2023-06-26T06:04:33;21.90;1.00
28614;DHT22;15806;53.548;9.964;2023-06-26T06:06:14;22.00;1.00
28614;DHT22;15806;53.548;9.964;2023-06-26T06:07:54;22.00;1.00
28614;DHT22;15806;53.548;9.964;2023-06-26T06:09:35;22.10;1.00
28614;DHT22;15806;53.548;9.964;2023-06-26T06:11:15;22.10;1.00
28614;DHT22;15806;53.548;9.964;2023-06-26T06:12:56;22.20;99.90
28614;DHT22;15806;53.548;9.964;2023-06-26T06:14:36;22.20;1.00
28614;DHT22;15806;53.548;9.964;2023-06-26T06:16:17;22.30;1.00
28614;DHT22;15806;53.548;9.964;2023-06-26T06:17:57;22.30;12.90
28614;DHT22;15806;53.548;9.964;2023-06-26T06:19:38;22.30;77.60
28614;DHT22;15806;53.548;9.964;2023-06-26T06:21:18;22.40;1.00
28614;DHT22;15806;53.548;9.964;2023-06-26T06:22:59;22.50;99.90
28614;DHT22;15806;53.548;9.964;2023-06-26T06:24:39;22.60;1.00
28614;DHT22;15806;53.548;9.964;2023-06-26T06:26:20;22.70;1.00
28614;DHT22;15806;53.548;9.964;2023-06-26T06:28:00;22.70;99.90
28614;DHT22;15806;53.548;9.964;2023-06-26T06:29:41;22.70;99.90
28614;DHT22;15806;53.548;9.964;2023-06-26T06:31:21;22.80;33.20
28614;DHT22;15806;53.548;9.964;2023-06-26T06:33:02;22.90;1.00
28614;DHT22;15806;53.548;9.964;2023-06-26T06:34:42;22.90;99.90
28614;DHT22;15806;53.548;9.964;2023-06-26T06:36:23;22.80;1.00
28614;DHT22;15806;53.548;9.964;2023-06-26T06:38:03;22.90;1.00
28614;DHT22;15806;53.548;9.964;2023-06-26T06:39:44;23.20;1.00
28614;DHT22;15806;53.548;9.964;2023-06-26T06:41:24;23.60;99.90
28614;DHT22;15806;53.548;9.964;2023-06-26T06:43:05;24.20;2.90
28614;DHT22;15806;53.548;9.964;2023-06-26T06:44:45;24.30;99.90
28614;DHT22;15806;53.548;9.964;2023-06-26T06:46:26;24.10;99.90
28614;DHT22;15806;53.548;9.964;2023-06-26T06:48:07;23.70;1.00
28614;DHT22;15806;53.548;9.964;2023-06-26T06:49:47;23.60;99.90
28614;DHT22;15806;53.548;9.964;2023-06-26T06:51:28;24.20;90.40
28614;DHT22;15806;53.548;9.964;2023-06-26T06:53:08;24.60;99.90
28614;DHT22;15806;53.548;9.964;2023-06-26T06:54:57;24.80;99.90
28614;DHT22;15806;53.548;9.964;2023-06-26T06:56:37;25.10;1.00
28614;DHT22;15806;53.548;9.964;2023-06-26T06:58:18;25.40;1.00
28614;DHT22;15806;53.548;9.964;2023-06-26T06:59:58;25.30;1.00
28614;DHT22;15806;53.548;9.964;2023-06-26T07:01:40;25.60;1.00
28614;DHT22;15806;53.548;9.964;2023-06-26T07:03:20;25.60;1.00
28614;DHT22;15806;53.548;9.964;2023-06-26T07:05:01;25.90;1.00
28614;DHT22;15806;53.548;9.964;2023-06-26T07:06:43;25.90;99.90
28614;DHT22;15806;53.548;9.964;2023-06-26T07:08:23;26.00;99.90
28614;DHT22;15806;53.548;9.964;2023-06-26T07:10:06;26.20;99.90
28614;DHT22;15806;53.548;9.964;2023-06-26T07:11:47;26.20;99.90
28614;DHT22;15806;53.548;9.964;2023-06-26T07:13:27;26.40;99.90
28614;DHT22;15806;53.548;9.964;2023-06-26T07:15:08;26.30;99.90
28614;DHT22;15806;53.548;9.964;2023-06-26T07:16:49;26.80;99.90
28614;DHT22;15806;53.548;9.964;2023-06-26T07:18:30;27.00;87.50
28614;DHT22;15806;53.548;9.964;2023-06-26T07:20:11;27.00;90.20
28614;DHT22;15806;53.548;9.964;2023-06-26T07:21:52;27.20;56.80
28614;DHT22;15806;53.548;9.964;2023-06-26T07:23:32;27.10;93.70
28614;DHT22;15806;53.548;9.964;2023-06-26T07:25:13;27.30;35.70
28614;DHT22;15806;53.548;9.964;2023-06-26T07:26:53;27.60;1.00
28614;DHT22;15806;53.548;9.964;2023-06-26T07:28:34;27.90;1.00
28614;DHT22;15806;53.548;9.964;2023-06-26T07:30:14;27.80;1.00
28614;DHT22;15806;53.548;9.964;2023-06-26T07:31:55;28.20;1.00
28614;DHT22;15806;53.548;9.964;2023-06-26T07:33:35;27.90;1.00
28614;DHT22;15806;53.548;9.964;2023-06-26T07:35:16;28.00;1.00
28614;DHT22;15806;53.548;9.964;2023-06-26T07:36:57;28.40;1.00
28614;DHT22;15806;53.548;9.964;2023-06-26T07:38:37;28.80;1.00
28614;DHT22;15806;53.548;9.964;2023-06-26T07:40:18;28.70;1.00
28614;DHT22;15806;53.548;9.964;2023-06-26T07:41:58;29.00;1.00
28614;DHT22;15806;53.548;9.964;2023-06-26T07:43:39;29.00;1.00
28614;DHT22;15806;53.548;9.964;2023-06-26T07:45:20;28.80;1.00
28614;DHT22;15806;53.548;9.964;2023-06-26T07:47:00;29.30;1.00
28614;DHT22;15806;53.548;9.964;2023-06-26T07:48:41;29.30;1.00
28614;DHT22;15806;53.548;9.964;2023-06-26T07:50:21;29.20;1.00
28614;DHT22;15806;53.548;9.964;2023-06-26T07:52:03;29.00;99.90
28614;DHT22;15806;53.548;9.964;2023-06-26T07:53:43;28.20;1.00
28614;DHT22;15806;53.548;9.964;2023-06-26T07:55:24;27.80;1.00
28614;DHT22;15806;53.548;9.964;2023-06-26T07:57:05;27.80;1.00
28614;DHT22;15806;53.548;9.964;2023-06-26T07:58:45;27.70;1.00
28614;DHT22;15806;53.548;9.964;2023-06-26T08:00:26;27.80;1.00
28614;DHT22;15806;53.548;9.964;2023-06-26T08:02:07;28.60;1.00
28614;DHT22;15806;53.548;9.964;2023-06-26T08:03:48;28.80;99.90
28614;DHT22;15806;53.548;9.964;2023-06-26T08:05:28;28.40;99.90
28614;DHT22;15806;53.548;9.964;2023-06-26T08:07:09;29.00;99.90
28614;DHT22;15806;53.548;9.964;2023-06-26T08:08:50;29.10;99.90
28614;DHT22;15806;53.548;9.964;2023-06-26T08:10:31;28.50;99.90
28614;DHT22;15806;53.548;9.964;2023-06-26T08:12:11;28.40;99.90
28614;DHT22;15806;53.548;9.964;2023-06-26T08:13:52;28.20;99.90
28614;DHT22;15806;53.548;9.964;2023-06-26T08:15:32;28.30;99.90
28614;DHT22;15806;53.548;9.964;2023-06-26T08:17:13;28.40;99.90
28614;DHT22;15806;53.548;9.964;2023-06-26T08:18:53;28.60;99.90
28614;DHT22;15806;53.548;9.964;2023-06-26T08:20:34;28.80;99.90
28614;DHT22;15806;53.548;9.964;2023-06-26T08:22:14;28.00;99.90
28614;DHT22;15806;53.548;9.964;2023-06-26T08:23:55;28.70;99.90
28614;DHT22;15806;53.548;9.964;2023-06-26T08:25:35;28.80;99.90
28614;DHT22;15806;53.548;9.964;2023-06-26T08:27:16;28.70;99.90
28614;DHT22;15806;53.548;9.964;2023-06-26T08:28:56;28.60;99.90
28614;DHT22;15806;53.548;9.964;2023-06-26T08:30:37;28.30;99.90
28614;DHT22;15806;53.548;9.964;2023-06-26T08:32:17;28.60;99.90
28614;DHT22;15806;53.548;9.964;2023-06-26T08:33:58;27.60;99.90
28614;DHT22;15806;53.548;9.964;2023-06-26T08:35:38;27.60;99.90
28614;DHT22;15806;53.548;9.964;2023-06-26T08:37:19;27.10;99.90
28614;DHT22;15806;53.548;9.964;2023-06-26T08:38:59;26.80;99.90
28614;DHT22;15806;53.548;9.964;2023-06-26T08:40:40;26.80;99.90
28614;DHT22;15806;53.548;9.964;2023-06-26T08:42:20;26.60;99.90
28614;DHT22;15806;53.548;9.964;2023-06-26T08:44:01;26.60;99.90
28614;DHT22;15806;53.548;9.964;2023-06-26T08:45:42;26.50;99.90
28614;DHT22;15806;53.548;9.964;2023-06-26T08:47:22;26.60;99.90
28614;DHT22;15806;53.548;9.964;2023-06-26T08:49:18;26.50;99.90
28614;DHT22;15806;53.548;9.964;2023-06-26T08:51:09;26.60;99.90
28614;DHT22;15806;53.548;9.964;2023-06-26T08:53:29;26.50;1.00
28614;DHT22;15806;53.548;9.964;2023-06-26T08:55:15;26.50;1.00
28614;DHT22;15806;53.548;9.964;2023-06-26T08:56:57;26.80;1.00
28614;DHT22;15806;53.548;9.964;2023-06-26T08:58:38;27.40;1.00
28614;DHT22;15806;53.548;9.964;2023-06-26T09:00:19;28.00;99.90
28614;DHT22;15806;53.548;9.964;2023-06-26T09:01:59;28.20;99.90
28614;DHT22;15806;53.548;9.964;2023-06-26T09:03:40;27.90;99.90
28614;DHT22;15806;53.548;9.964;2023-06-26T09:05:20;27.50;1.00
28614;DHT22;15806;53.548;9.964;2023-06-26T09:07:01;27.70;1.00
28614;DHT22;15806;53.548;9.964;2023-06-26T09:08:42;28.20;1.00
28614;DHT22;15806;53.548;9.964;2023-06-26T09:10:22;28.00;99.90
28614;DHT22;15806;53.548;9.964;2023-06-26T09:12:03;27.90;99.90
28614;DHT22;15806;53.548;9.964;2023-06-26T09:13:44;28.30;1.00
28614;DHT22;15806;53.548;9.964;2023-06-26T09:15:24;27.80;1.00
28614;DHT22;15806;53.548;9.964;2023-06-26T09:17:05;28.00;1.00
28614;DHT22;15806;53.548;9.964;2023-06-26T09:18:46;28.30;99.90
28614;DHT22;15806;53.548;9.964;2023-06-26T09:20:28;28.50;99.90
28614;DHT22;15806;53.548;9.964;2023-06-26T09:22:13;28.30;99.90
28614;DHT22;15806;53.548;9.964;2023-06-26T09:23:55;28.90;99.90
28614;DHT22;15806;53.548;9.964;2023-06-26T09:25:38;29.30;99.90
28614;DHT22;15806;53.548;9.964;2023-06-26T09:27:19;29.90;99.90
28614;DHT22;15806;53.548;9.964;2023-06-26T09:29:00;30.10;99.90
28614;DHT22;15806;53.548;9.964;2023-06-26T09:30:41;29.30;99.90
28614;DHT22;15806;53.548;9.964;2023-06-26T09:32:24;27.90;99.90
28614;DHT22;15806;53.548;9.964;2023-06-26T09:34:05;27.50;1.00
28614;DHT22;15806;53.548;9.964;2023-06-26T09:35:47;27.60;1.00
28614;DHT22;15806;53.548;9.964;2023-06-26T09:37:28;27.10;1.00
28614;DHT22;15806;53.548;9.964;2023-06-26T09:39:08;26.80;1.00
28614;DHT22;15806;53.548;9.964;2023-06-26T09:40:49;26.40;1.00
28614;DHT22;15806;53.548;9.964;2023-06-26T09:42:29;26.30;1.00
28614;DHT22;15806;53.548;9.964;2023-06-26T09:44:14;26.40;1.00
28614;DHT22;15806;53.548;9.964;2023-06-26T09:45:54;26.30;1.00
28614;DHT22;15806;53.548;9.964;2023-06-26T09:47:35;26.30;1.00
28614;DHT22;15806;53.548;9.964;2023-06-26T09:49:15;26.30;1.00
28614;DHT22;15806;53.548;9.964;2023-06-26T09:50:56;26.20;1.00
28614;DHT22;15806;53.548;9.964;2023-06-26T09:52:36;26.20;1.00
28614;DHT22;15806;53.548;9.964;2023-06-26T09:54:17;26.20;1.00
28614;DHT22;15806;53.548;9.964;2023-06-26T09:55:58;26.10;1.00
28614;DHT22;15806;53.548;9.964;2023-06-26T09:57:38;25.90;1.00
28614;DHT22;15806;53.548;9.964;2023-06-26T09:59:19;25.70;1.00
28614;DHT22;15806;53.548;9.964;2023-06-26T10:01:00;25.50;56.30
28614;DHT22;15806;53.548;9.964;2023-06-26T10:02:40;25.40;99.90
28614;DHT22;15806;53.548;9.964;2023-06-26T10:04:21;25.40;99.90
28614;DHT22;15806;53.548;9.964;2023-06-26T10:06:02;25.30;99.90
28614;DHT22;15806;53.548;9.964;2023-06-26T10:07:44;25.10;99.90
28614;DHT22;15806;53.548;9.964;2023-06-26T10:09:25;24.90;1.00
28614;DHT22;15806;53.548;9.964;2023-06-26T10:11:08;24.80;1.00
28614;DHT22;15806;53.548;9.964;2023-06-26T10:12:57;24.60;1.00
28614;DHT22;15806;53.548;9.964;2023-06-26T10:14:41;24.50;35.00
28614;DHT22;15806;53.548;9.964;2023-06-26T10:16:25;24.40;99.90
28614;DHT22;15806;53.548;9.964;2023-06-26T10:18:07;24.20;1.00
28614;DHT22;15806;53.548;9.964;2023-06-26T10:19:49;23.80;99.90
28614;DHT22;15806;53.548;9.964;2023-06-26T10:21:31;23.70;99.90
28614;DHT22;15806;53.548;9.964;2023-06-26T10:23:16;23.50;99.90
28614;DHT22;15806;53.548;9.964;2023-06-26T10:24:59;23.20;42.70
28614;DHT22;15806;53.548;9.964;2023-06-26T10:26:44;22.80;99.90
28614;DHT22;15806;53.548;9.964;2023-06-26T10:28:26;22.30;99.90
28614;DHT22;15806;53.548;9.964;2023-06-26T10:30:13;22.00;99.90
28614;DHT22;15806;53.548;9.964;2023-06-26T10:31:56;21.70;99.90
28614;DHT22;15806;53.548;9.964;2023-06-26T10:33:39;21.70;99.90
28614;DHT22;15806;53.548;9.964;2023-06-26T10:35:19;21.70;99.90
28614;DHT22;15806;53.548;9.964;2023-06-26T10:37:03;21.70;99.90
28614;DHT22;15806;53.548;9.964;2023-06-26T10:38:57;21.70;99.90
28614;DHT22;15806;53.548;9.964;2023-06-26T10:40:42;21.80;99.90
28614;DHT22;15806;53.548;9.964;2023-06-26T10:42:35;21.90;99.90
28614;DHT22;15806;53.548;9.964;2023-06-26T10:44:16;21.60;99.90
28614;DHT22;15806;53.548;9.964;2023-06-26T10:45:57;21.70;99.90
28614;DHT22;15806;53.548;9.964;2023-06-26T10:47:40;21.90;99.90